Alpine Village, CA

6:23 AM PDT on September 20, 2014 (GMT -0700)
RAWS MARKLEEVILLE CA US | Change Station
CLOSE
Current Station
Personal Weather Station
Location: Markleeville, CA
Elevation: 5500 ft
Nearby Weather Stations

Elev 5500 ft 38.69 °N, 119.77 °W | Updated 35 minutes ago

Clear
Clear
47 °F
Feels Like 47 °F
N
1
Wind Variable Wind from South
Gusts 2.0 mph

Today
High -- | Low -- °F
--% Chance of Precip.
Yesterday
High -- | Low -- °F
Precip. -- in
6:45 AM 6:59 PM
Waning Crescent, 12% visible
Pressure 30.03 in
Visibility 10.0 miles
Clouds Clear
Windchill 47 °F
Dew Point 35 °F
Humidity 64%
Rainfall 0.00 in
Snow Depth 0 in , 1 in , 0 in
UV 0 out of 12
Pollen 6.70 out of 12
Air Quality Not available.
Flu Activity Not available.
METAR KTVL 201253Z AUTO 18003KT 10SM CLR 06/01 A3017 RMK AO2 SLP169 T00560006

More Conditions Fewer Conditions

Pressure 30.03 in
Visibility 10.0 miles
Clouds Clear
Windchill 47 °F
Dew Point 35 °F
Humidity 64%
Rainfall 0.00 in
Snow Depth 0 in , 1 in , 0 in
UV 0 out of 12
Pollen 6.70 out of 12
Air Quality Not available.
Flu Activity Not available.
METAR KTVL 201253Z AUTO 18003KT 10SM CLR 06/01 A3017 RMK AO2 SLP169 T00560006

More Conditions Fewer Conditions

10-Day Weather Forecast

Almanac

Astronomy

Sep. 20, 2014 Rise Set
Actual Time 6:45 AM PDT 6:59 PM PDT
Civil Twilight 6:18 AM PDT 7:25 PM PDT
Nautical Twilight 5:47 AM PDT 7:56 PM PDT
Astronomical Twilight 5:15 AM PDT 8:28 PM PDT
Moon 3:30 AM PDT 5:04 PM PDT
Length of Visible Light 13h 07m
Length of Day
12h 14m
Tomorrow will be 2m 30s shorter.
Waning Crescent, 12% of the Moon is Illuminated
Today
Waning Crescent
Sep 24
New
Oct 1
First Quarter
Oct 8
Full
Oct 15
Last Quarter

Today's Extremes

State Highs State Lows

Community

WunderPhotos

Upload Photos

1,754,857 photos uploaded!

Nearby

Snow Depth

Station Depth Elevation
Fallen Leaf 0 in 6300 ft
Leavitt Lake 1 in 9400 ft
Tahoe City Cross 0 in 6750 ft
Summit Meadow 1 in 9122 ft
Spratt Creek 1 in 6200 ft

Earthquake Activity

City Distance Mag. Time & Date
Gabbs, Nevada 93 miles 3.3 4:37 AM PDT
2014-09-19
Livermore, California 126 miles 2.6 3:37 AM PDT
2014-09-19
Minimum magnitude displayed is 2.5.

Coastal Water Temperatures

Place Temperature
No Stations Reporting

Nearby Weather Stations